• Join FlightAware (Why Join?)
  • Login
  • US Flag 
03:18PM EDT


 

Airport Tracker/Info


-or-


 

Live Flight TrackerFlight Track Log ✈ CTL17 ✈ 30-Apr-2013 ✈ KYIP - KBKL

Flight Track Log - Related Links

Times and Time Zones

All times are in EDT time to prevent confusion due to time zone crossing. See the CTL17 flight status page for this flight to view local times or setup timezone preferences in your user account.

Time Position Orientation Groundspeed Altitude Reporting Facility
EDT Latitude Longitude Course Direction KTS MPH feet Rate Location/Type
05:56PM 42.2150 -83.5692 234° Southwest 118 136 1,500  Level Cleveland Center
05:57PM 42.1808 -83.6039 217° Southwest 142 163 2,400 600 Climbing Cleveland Center
05:58PM 42.1486 -83.6333 214° Southwest 140 161 2,900 300 Climbing Cleveland Center
05:59PM 42.1161 -83.6064 148° Southeast 151 174 3,000  Climbing Cleveland Center
06:00PM 42.0750 -83.5850 159° South 159 183 3,000  Level Cleveland Center
06:02PM 42.0553 -83.5154 111° Southeast  Level Estimated
06:02PM 42.0342 -83.4683 111° Southeast 159 183 3,000  Level Cleveland Center
06:03PM 42.0167 -83.4117 113° Southeast 160 184 3,000  Level Cleveland Center
06:04PM 41.9972 -83.3550 115° Southeast 161 185 3,000 120 Level Cleveland Center
06:05PM 41.9819 -83.2983 110° East 164 189 3,300 360 Climbing Cleveland Center
06:06PM 41.9647 -83.2389 111° Southeast 153 176 3,800 480 Climbing Cleveland Center
06:07PM 41.9492 -83.1881 112° Southeast 154 177 4,300 420 Climbing Cleveland Center
06:09PM 41.9317 -83.1258 111° Southeast 155 178 4,800 360 Climbing Cleveland Center
06:10PM 41.9161 -83.0750 112° Southeast 157 181 5,100 120 Climbing Cleveland Center
06:10PM 41.9044 -83.0356 112° Southeast 162 186 5,100 -60 Level Cleveland Center
06:11PM 41.8831 -82.9650 112° Southeast 174 200 5,000  Descending Cleveland Center
06:12PM 41.8614 -82.9000 114° Southeast 168 193 5,100  Climbing Cleveland Center
06:13PM 41.8478 -82.8494 110° East 167 192 5,100  Level Cleveland Center
06:14PM 41.8344 -82.7931 108° East 171 197 5,100  Level Cleveland Center
06:15PM 41.8128 -82.7283 114° Southeast 171 197 5,100  Level Cleveland Center
06:17PM 41.7950 -82.6664 111° Southeast 169 194 5,100  Level Cleveland Center
06:18PM 41.7794 -82.6075 109° East 169 194 5,100  Level Cleveland Center
06:19PM 41.7597 -82.5456 113° Southeast 168 193 5,100  Level Cleveland Center
06:19PM 41.7461 -82.4922 109° East 165 190 5,100  Level Cleveland Center
06:20PM 41.7281 -82.4361 113° Southeast 169 194 5,100  Level Cleveland Center
06:21PM 41.7144 -82.3800 108° East 167 192 5,100 -300 Level Cleveland Center
06:23PM 41.6928 -82.3072 112° Southeast 175 201 4,500 -540 Descending Cleveland Center
06:24PM 41.6747 -82.2456 111° Southeast 177 204 4,000 -480 Descending Cleveland Center
06:25PM 41.6569 -82.1867 112° Southeast 170 196 3,600 -480 Descending Cleveland Center
06:26PM 41.6408 -82.1336 112° Southeast 167 192 3,100 -480 Descending Cleveland Center
06:27PM 41.6250 -82.0719 109° East 174 200 2,700 -420 Descending Cleveland Center
06:27PM 41.6092 -82.0189 112° Southeast 163 188 2,400 -420 Descending Cleveland Center
06:28PM 41.5931 -81.9603 110° East 164 189 2,000 -300 Descending Cleveland Center
06:29PM 41.5792 -81.9044 108° East 163 188 1,800 -120 Descending Cleveland Center
06:31PM 41.5611 -81.8458 112° Southeast 157 181 1,800 -120 Level Cleveland Center
06:32PM 41.5472 -81.7928 109° East 153 176 1,600 -240 Descending Cleveland Center
06:33PM 41.5267 -81.7453 120° Southeast 149 171 1,400 -360 Descending Cleveland Center
06:34PM 41.5083 -81.7061 122° Southeast 122 140 900 -540 Descending Cleveland Center